Airfield :
LOGIN :

Register | Disclaimer

   EN    FR    IT 

 










Legend :    VFR   Marginal VFR   IFR   Intensive IFR   Very Intensive IFR
Visi :
Ceiling :
>= 8 km
>= 3000ft
5 to 8 km
1000 to 3000 ft
1500m to 5 km
500 to 1000 ft
800 to 1500m
200 to 500 ft
< 800m
< 200 ft
Symbols :   Thunderstorms  Fog  Heavy snow  Heavy precipitations  Wind > 20 kt
SIGMETs :     Misc.  Thunderstorms  Icing  Turbulence  Mountain Waves  Volcanic Ashes







- Airport Elevation : 13 ft
- IATA code : SNR
- Download approach charts


LFRZ - St-Nazaire

CURRENT METAR :
  • 201730Z AUTO 28008KT 250V310 CAVOK 25/19 Q1021 NOSIG

EXPIRED METARs :
  • 201700Z AUTO 29006KT 240V320 CAVOK 26/20 Q1021 NOSIG
  • 201630Z AUTO 28007KT 260V340 CAVOK 26/19 Q1021 NOSIG
  • 201600Z AUTO 27006KT 230V310 9999 SCT027 SCT047 BKN064 26/19 Q1021 NOSIG
  • 201530Z AUTO 29006KT 260V340 9999 SCT027 SCT044 OVC064 26/19 Q1021 NOSIG
  • 201500Z AUTO 28006KT 240V320 9999 FEW027 SCT042 OVC060 26/19 Q1022 NOSIG

TAF TAF LFRZ
Valid from the 20 at 18:00 until the 21 at 18:00 UTC


201700Z 2018/2118 VRB03KT 9999 BKN030
TEMPO 2018/2021 32013KT
No reported NOTAMs for that airfield.



MET'MAP, your aeronautical weather chart ! - Copyright ORBIFLY December 2007 - Disclaimer

ORBIFLY MET'MAP TEAM :

Programming & Development : Alexandra Zaïnal
Concept & Development : Baudouin d'Aumeries
Co-Development & Prog : Marc-Olivier Méhu
Technical & hardware support : Manuel Goepfert

Contact : metmap@orbifly.com




SOURCES & CREDITS :

   NOAA